Time;durP1;ratioP1;P1;durP2;ratioP2;P2;SDS_P1;SDS_P2;PMS_P1;PMS_P2;Temp;Humidity;BMP_temperature;BMP_pressure;BME280_temperature;BME280_humidity;BME280_pressure;Samples;Min_cycle;Max_cycle;Signal;HPM_P1;HPM_P2
2023/08/12 00:01:24;;;;;;;5.47;5.07;;;19.30;85.20;;;19.25;71.37;98282.41;4951513;29;20524;-70
2023/08/12 00:03:52;;;;;;;7.33;4.30;;;19.30;85.30;;;19.29;71.32;98305.47;4956445;28;20548;-69
2023/08/12 00:06:19;;;;;;;4.90;4.47;;;19.20;85.20;;;19.22;71.88;98300.22;4941145;29;20466;-70
2023/08/12 00:08:47;;;;;;;6.63;5.20;;;19.20;85.30;;;18.74;71.80;98222.72;4945129;28;20454;-69
2023/08/12 00:11:14;;;;;;;5.20;4.67;;;19.10;85.30;;;19.19;71.86;98295.28;4938003;29;20877;-69
2023/08/12 00:13:42;;;;;;;4.80;4.40;;;19.20;85.30;;;19.21;71.95;98293.09;4942569;28;20498;-70
2023/08/12 00:16:10;;;;;;;5.57;4.40;;;19.20;85.40;;;19.23;71.74;98299.13;4944162;29;20505;-70
2023/08/12 00:18:37;;;;;;;4.87;4.47;;;19.20;85.30;;;19.24;72.00;98291.72;4950033;28;20902;-70
2023/08/12 00:21:09;;;;;;;5.10;4.70;;;19.10;85.40;;;19.14;72.25;98300.72;4935532;29;20491;-69
2023/08/12 00:23:41;;;;;;;8.00;5.30;;;19.10;85.70;;;19.10;72.25;98288.66;4951675;28;20795;-69
2023/08/12 00:26:08;;;;;;;5.10;4.70;;;19.00;85.60;;;19.17;72.10;98297.44;4947013;28;20514;-69
2023/08/12 00:28:36;;;;;;;6.80;4.67;;;19.10;85.70;;;19.00;73.04;98302.25;4935461;29;20956;-69
2023/08/12 00:31:04;;;;;;;5.20;4.80;;;19.00;85.70;;;19.16;72.54;98290.31;4948114;28;20443;-69
2023/08/12 00:33:32;;;;;;;4.90;4.60;;;19.00;85.90;;;19.17;72.38;98281.00;4948900;28;20481;-69
2023/08/12 00:36:00;;;;;;;5.60;5.10;;;18.90;86.00;;;19.12;72.39;98278.25;4936627;29;20944;-68
2023/08/12 00:38:29;;;;;;;6.00;5.27;;;18.90;86.00;;;19.11;72.60;98284.81;4947076;28;20558;-70
2023/08/12 00:40:57;;;;;;;5.67;5.10;;;18.90;86.10;;;19.01;72.83;98288.31;4938830;29;20455;-69
2023/08/12 00:43:25;;;;;;;5.90;5.40;;;18.80;86.20;;;19.07;72.57;98275.50;4941802;29;20752;-69
2023/08/12 00:45:53;;;;;;;5.43;4.67;;;18.80;86.20;;;19.02;73.14;98275.44;4933886;29;20462;-69
2023/08/12 00:48:20;;;;;;;4.77;4.47;;;18.80;86.50;;;19.00;72.82;98277.63;4948479;28;20458;-68
2023/08/12 00:50:49;;;;;;;5.00;4.50;;;18.80;86.80;;;18.95;73.27;98273.75;4938003;29;20963;-70
2023/08/12 00:53:18;;;;;;;6.00;5.40;;;18.80;86.50;;;18.82;74.07;98280.50;4946887;28;20465;-69
2023/08/12 00:55:45;;;;;;;4.67;4.13;;;18.70;86.80;;;18.83;73.77;98270.38;4948618;29;20545;-69
2023/08/12 00:58:13;;;;;;;5.30;4.90;;;18.70;86.80;;;18.78;74.07;98262.13;4962232;28;21335;-69
2023/08/12 01:00:41;;;;;;;5.47;5.07;;;18.60;87.00;;;18.73;74.00;98270.28;4947880;29;20951;-69
2023/08/12 01:03:08;;;;;;;5.30;4.90;;;18.50;87.10;;;18.69;74.48;98270.81;4932365;29;20562;-69
2023/08/12 01:05:36;;;;;;;5.07;4.57;;;18.40;87.70;;;18.62;74.91;98272.97;4951222;29;21080;-69
2023/08/12 01:08:05;;;;;;;9.63;5.47;;;18.40;88.10;;;18.59;74.91;98273.50;4942400;28;20466;-68
2023/08/12 01:10:41;;;;;;;5.27;4.87;;;18.30;88.30;;;18.55;75.35;98266.88;4943558;29;20450;-69
2023/08/12 01:13:27;;;;;;;5.73;5.13;;;18.20;88.60;;;18.57;75.25;98261.97;4944554;28;20465;-69
2023/08/12 01:15:59;;;;;;;5.10;4.70;;;18.20;88.80;;;18.65;75.03;98257.94;4951884;28;20457;-71
2023/08/12 01:18:27;;;;;;;5.10;4.53;;;18.30;88.90;;;18.64;75.02;98254.38;4937764;28;20994;-71
2023/08/12 01:20:54;;;;;;;5.50;5.00;;;18.40;88.70;;;18.64;74.90;98256.28;4945622;29;20442;-70
2023/08/12 01:23:24;;;;;;;5.30;4.80;;;18.40;88.60;;;18.51;75.83;98258.41;4943484;28;20469;-70
2023/08/12 01:25:51;;;;;;;5.97;5.37;;;18.30;89.10;;;18.50;75.75;98261.38;4938415;29;20965;-69
2023/08/12 01:28:18;;;;;;;5.13;4.73;;;18.20;89.10;;;18.40;76.38;98252.00;4944993;29;20966;-69
2023/08/12 01:30:53;;;;;;;5.90;4.93;;;18.20;89.60;;;18.26;76.94;98245.31;4947080;28;20447;-69
2023/08/12 01:33:29;;;;;;;5.20;4.80;;;18.00;90.10;;;18.21;77.55;98251.59;4940970;29;20462;-69
2023/08/12 01:36:01;;;;;;;5.73;4.70;;;17.90;90.30;;;17.82;77.75;98180.66;4946127;29;20484;-68
2023/08/12 01:38:34;;;;;;;12.80;5.40;;;18.00;90.50;;;18.29;77.49;98238.50;4933361;29;20466;-70
2023/08/12 01:41:02;;;;;;;5.80;5.37;;;18.10;90.30;;;18.29;76.80;98239.34;4932765;29;20493;-70
2023/08/12 01:43:30;;;;;;;6.10;5.20;;;18.10;90.10;;;18.07;77.70;98234.78;4933029;29;20455;-70
2023/08/12 01:45:57;;;;;;;5.70;5.20;;;18.00;90.30;;;17.99;77.89;98219.63;4933233;29;20462;-69
2023/08/12 01:48:25;;;;;;;5.30;4.90;;;17.80;90.50;;;18.17;78.25;98241.44;4933128;29;20470;-72
2023/08/12 01:50:52;;;;;;;5.10;4.70;;;17.80;90.80;;;18.09;78.41;98238.06;4944374;29;20473;-69
2023/08/12 01:53:19;;;;;;;5.97;5.47;;;17.80;91.00;;;18.02;78.77;98229.25;4950891;29;20454;-70
2023/08/12 01:55:50;;;;;;;6.00;5.40;;;17.70;91.20;;;18.15;78.29;98246.34;4947713;29;20458;-70
2023/08/12 01:58:17;;;;;;;5.53;5.10;;;17.80;91.20;;;18.12;78.63;98229.38;4933356;29;20478;-69
2023/08/12 02:00:45;;;;;;;6.70;6.10;;;17.80;91.10;;;17.83;78.34;98180.41;4940031;29;20563;-69
2023/08/12 02:03:12;;;;;;;5.73;5.23;;;17.80;91.10;;;18.06;78.56;98224.91;4933194;29;20462;-69
2023/08/12 02:05:40;;;;;;;6.33;5.73;;;17.80;91.00;;;18.00;78.70;98223.19;4938218;29;20490;-70
2023/08/12 02:08:08;;;;;;;8.60;5.50;;;17.80;91.00;;;17.94;79.09;98221.50;4944130;29;20458;-69
2023/08/12 02:10:35;;;;;;;7.23;6.63;;;17.70;91.20;;;17.87;79.71;98216.22;4938643;28;20454;-70
2023/08/12 02:13:04;;;;;;;6.33;5.73;;;17.70;91.40;;;17.91;79.34;98211.09;4955605;28;20443;-69
2023/08/12 02:15:32;;;;;;;5.77;5.37;;;17.70;91.50;;;17.99;79.13;98218.81;4960321;28;20550;-69
2023/08/12 02:17:59;;;;;;;5.83;5.33;;;17.70;91.40;;;17.87;79.16;98209.97;4954424;29;20973;-70
2023/08/12 02:20:27;;;;;;;5.43;5.03;;;17.70;91.30;;;17.94;79.48;98210.56;4942226;28;20479;-68
2023/08/12 02:22:54;;;;;;;6.00;5.10;;;17.70;91.50;;;17.94;79.25;98210.56;4946044;29;21029;-67
2023/08/12 02:25:21;;;;;;;6.03;5.50;;;17.70;91.40;;;17.95;79.04;98218.50;4950980;28;20473;-68
2023/08/12 02:27:48;;;;;;;5.63;5.13;;;17.70;91.30;;;17.97;78.72;98215.53;4936971;29;20458;-68
2023/08/12 02:30:17;;;;;;;5.53;5.00;;;17.70;91.20;;;17.44;79.11;98127.84;4951115;28;20790;-69
2023/08/12 02:32:44;;;;;;;6.57;5.50;;;17.70;91.20;;;17.88;78.89;98204.22;4951631;29;20462;-69
2023/08/12 02:35:12;;;;;;;5.43;4.93;;;17.70;91.30;;;17.84;79.64;98203.94;4939268;29;20960;-69
2023/08/12 02:37:39;;;;;;;6.70;6.10;;;17.60;91.60;;;17.77;79.61;98200.56;4945561;29;20454;-69
2023/08/12 02:40:08;;;;;;;10.60;7.70;;;17.60;91.60;;;17.76;79.61;98198.09;4938658;29;20553;-69
2023/08/12 02:42:35;;;;;;;10.60;7.50;;;17.50;91.70;;;17.70;80.07;98206.22;4943431;29;20491;-68
2023/08/12 02:45:03;;;;;;;8.50;7.40;;;17.50;91.80;;;17.68;80.27;98193.94;4950492;28;20478;-68
2023/08/12 02:47:32;;;;;;;8.10;6.23;;;17.40;91.90;;;17.32;80.19;98145.22;4935615;29;20506;-68
2023/08/12 02:49:59;;;;;;;9.57;7.30;;;17.40;91.90;;;17.68;80.20;98196.66;4947061;29;20453;-69
2023/08/12 02:52:26;;;;;;;11.43;7.13;;;17.40;92.20;;;17.50;80.72;98195.91;4938491;28;20458;-70
2023/08/12 02:54:55;;;;;;;9.33;7.17;;;17.40;92.30;;;17.57;80.70;98190.25;4941665;29;20466;-69
2023/08/12 02:57:22;;;;;;;8.30;6.57;;;17.40;92.10;;;17.58;80.23;98196.56;4943974;29;20572;-69
2023/08/12 02:59:49;;;;;;;9.10;6.57;;;17.40;91.80;;;17.61;80.06;98187.84;4954607;28;20450;-69
2023/08/12 03:02:16;;;;;;;7.57;6.30;;;17.40;91.90;;;17.62;79.92;98184.03;4947014;29;20454;-71
2023/08/12 03:04:45;;;;;;;8.40;6.17;;;17.40;91.90;;;17.49;80.32;98188.81;4956602;28;20490;-68
2023/08/12 03:07:12;;;;;;;12.50;6.43;;;17.40;91.90;;;17.52;80.05;98185.59;4940576;29;20462;-69
2023/08/12 03:09:39;;;;;;;11.60;7.00;;;17.30;91.90;;;17.49;80.35;98182.53;4950068;28;20466;-69
2023/08/12 03:12:08;;;;;;;8.73;6.90;;;17.30;92.10;;;17.47;80.48;98188.25;4943636;28;20512;-70
2023/08/12 03:14:35;;;;;;;8.87;6.23;;;17.30;92.10;;;17.40;80.33;98187.63;4945959;28;20450;-68
2023/08/12 03:17:03;;;;;;;7.77;5.90;;;17.30;91.80;;;17.35;80.76;98182.94;4941795;28;20453;-69
2023/08/12 03:19:30;;;;;;;8.43;6.17;;;17.30;91.90;;;17.41;80.44;98192.00;4953531;28;20453;-69
2023/08/12 03:21:59;;;;;;;9.33;6.30;;;17.30;91.90;;;17.29;80.88;98181.22;4949300;28;20454;-66
2023/08/12 03:24:26;;;;;;;6.70;5.90;;;17.30;91.90;;;16.94;80.74;98127.81;4942225;29;20489;-70
2023/08/12 03:26:53;;;;;;;6.93;6.30;;;17.20;91.80;;;17.35;80.69;98182.09;4939584;29;20947;-69
2023/08/12 03:29:21;;;;;;;7.13;6.43;;;17.20;91.90;;;16.89;80.97;98120.38;4939012;28;20470;-69
2023/08/12 03:31:48;;;;;;;12.03;6.83;;;17.10;92.10;;;17.19;81.49;98184.63;4936989;29;20462;-69
2023/08/12 03:34:15;;;;;;;6.40;5.43;;;17.10;92.30;;;17.24;80.78;98187.44;4969122;28;20453;-68
2023/08/12 03:36:43;;;;;;;6.20;5.63;;;17.10;92.00;;;17.22;80.27;98177.84;4951985;29;20493;-68
2023/08/12 03:39:11;;;;;;;8.40;5.80;;;17.20;91.90;;;17.30;80.05;98179.31;4935279;29;20477;-69
2023/08/12 03:41:38;;;;;;;6.87;6.17;;;17.20;91.80;;;17.30;80.07;98182.03;4932690;29;20455;-68
2023/08/12 03:44:06;;;;;;;6.40;5.60;;;17.20;91.60;;;17.31;79.58;98180.97;4935683;29;20451;-69
2023/08/12 03:46:34;;;;;;;7.60;6.63;;;17.20;91.60;;;17.31;79.59;98183.69;4951766;29;20902;-68
2023/08/12 03:49:01;;;;;;;6.20;5.60;;;17.20;91.60;;;17.27;79.34;98186.94;4943532;29;20449;-68
2023/08/12 03:51:28;;;;;;;6.90;5.57;;;17.20;91.40;;;17.29;79.51;98189.44;4934153;29;20456;-69
2023/08/12 03:53:55;;;;;;;5.60;5.00;;;17.20;91.40;;;17.31;79.60;98183.69;4938616;29;20961;-71
2023/08/12 03:56:24;;;;;;;7.67;5.63;;;17.20;91.50;;;17.23;79.71;98182.22;4937931;29;20938;-68
2023/08/12 03:58:52;;;;;;;9.67;5.67;;;17.20;91.40;;;17.27;79.59;98176.00;4942136;28;20464;-70
2023/08/12 04:01:19;;;;;;;8.17;6.00;;;17.20;91.50;;;17.24;79.74;98171.06;4935372;29;20966;-69
2023/08/12 04:03:46;;;;;;;6.00;5.10;;;17.20;91.60;;;17.21;79.79;98182.50;4933732;29;20471;-69
2023/08/12 04:06:13;;;;;;;6.03;5.43;;;17.20;91.40;;;17.35;79.23;98176.63;4945130;29;20545;-68
2023/08/12 04:08:41;;;;;;;6.43;5.83;;;17.20;91.50;;;17.32;78.42;98168.94;4945083;29;20458;-68
2023/08/12 04:11:08;;;;;;;4.97;4.53;;;17.20;91.20;;;17.49;78.52;98183.34;4948868;29;20457;-70
2023/08/12 04:13:36;;;;;;;6.40;5.80;;;17.30;91.00;;;17.55;77.84;98171.41;4938946;29;20462;-70
2023/08/12 04:16:04;;;;;;;7.40;5.20;;;17.40;90.90;;;17.52;78.08;98182.00;4949168;28;20451;-69
2023/08/12 04:18:31;;;;;;;8.27;6.13;;;17.40;90.80;;;17.50;78.18;98178.72;4936230;29;20474;-68
2023/08/12 04:20:59;;;;;;;5.97;5.10;;;17.40;90.70;;;17.66;77.40;98176.94;4939662;29;20541;-69
2023/08/12 04:23:26;;;;;;;5.83;5.33;;;17.50;90.60;;;17.75;76.88;98186.34;4948781;29;20448;-70
2023/08/12 04:25:54;;;;;;;5.77;5.30;;;17.60;90.50;;;17.80;77.33;98191.84;4948586;28;20959;-68
2023/08/12 04:28:23;;;;;;;5.10;4.63;;;17.60;90.60;;;17.83;76.82;98183.16;4933568;29;20451;-68
2023/08/12 04:30:52;;;;;;;6.57;5.40;;;17.70;90.50;;;18.13;75.85;98191.91;4933593;29;20462;-69
2023/08/12 04:33:19;;;;;;;7.40;4.73;;;17.90;90.30;;;18.59;73.21;98182.38;4948117;29;20465;-69
2023/08/12 04:35:47;;;;;;;5.40;4.90;;;18.50;89.10;;;19.29;70.64;98184.94;4949202;29;20495;-69
2023/08/12 04:38:15;;;;;;;5.50;5.00;;;19.10;87.30;;;19.82;67.82;98193.03;4938034;29;20544;-69
2023/08/12 04:40:44;;;;;;;5.43;4.50;;;19.80;85.60;;;20.06;66.66;98170.56;4938772;29;21014;-74
2023/08/12 04:43:13;;;;;;;6.00;5.40;;;20.20;84.60;;;20.16;66.52;98168.94;4950993;28;20454;-69
2023/08/12 04:45:40;;;;;;;6.77;5.13;;;20.40;83.80;;;20.46;64.93;98156.28;4951573;29;20513;-68
2023/08/12 04:48:10;;;;;;;5.27;4.77;;;20.70;83.00;;;20.59;64.31;98161.22;4938068;29;20454;-69
2023/08/12 04:50:38;;;;;;;5.10;4.60;;;21.10;82.10;;;20.36;62.66;98083.88;4933450;29;20458;-69
2023/08/12 04:53:06;;;;;;;6.13;4.17;;;21.20;81.10;;;21.43;60.76;98164.47;4946040;28;20451;-69
2023/08/12 04:55:35;;;;;;;6.20;4.70;;;21.50;80.30;;;21.82;59.36;98162.88;4957420;28;20444;-70
2023/08/12 04:58:04;;;;;;;4.57;4.17;;;21.90;79.50;;;21.74;59.28;98162.38;4947423;29;20805;-69
2023/08/12 05:00:32;;;;;;;5.30;4.17;;;22.10;78.70;;;21.87;58.81;98154.59;4942095;29;20447;-69
2023/08/12 05:02:59;;;;;;;4.77;4.27;;;22.10;78.20;;;21.82;58.82;98160.13;4933058;29;20499;-70
2023/08/12 05:05:28;;;;;;;4.57;3.90;;;22.20;77.90;;;21.78;58.83;98160.72;4937466;29;20493;-70
2023/08/12 05:07:56;;;;;;;4.83;4.07;;;22.40;77.30;;;21.76;58.51;98162.94;4933738;29;20468;-69
2023/08/12 05:10:23;;;;;;;4.13;3.77;;;22.50;76.50;;;21.16;60.50;98166.53;4942419;29;21047;-69
2023/08/12 05:12:52;;;;;;;4.30;4.00;;;21.90;77.20;;;20.59;61.92;98163.94;4939125;28;20467;-69
2023/08/12 05:15:19;;;;;;;4.57;4.27;;;21.50;77.50;;;20.95;61.58;98152.06;4946737;28;20969;-69
2023/08/12 05:17:46;;;;;;;4.63;4.10;;;21.50;78.10;;;21.32;60.55;98150.00;4936659;29;20464;-69
2023/08/12 05:20:13;;;;;;;4.07;3.77;;;21.90;77.50;;;21.03;60.99;98145.19;4940544;28;20855;-69
2023/08/12 05:22:42;;;;;;;5.23;4.57;;;21.70;77.20;;;20.48;62.85;98152.19;4936885;29;20501;-69
2023/08/12 05:25:10;;;;;;;6.17;4.50;;;21.10;78.00;;;20.16;64.08;98152.47;4932018;29;20470;-70
2023/08/12 05:27:37;;;;;;;4.60;4.20;;;20.80;78.60;;;19.90;64.99;98149.69;4936179;28;20468;-69
2023/08/12 05:30:05;;;;;;;5.30;3.87;;;20.50;79.30;;;19.50;66.87;98150.22;4932065;29;20549;-68
2023/08/12 05:32:32;;;;;;;4.17;3.77;;;20.10;80.00;;;19.65;66.08;98154.88;4941712;29;20461;-68
2023/08/12 05:35:00;;;;;;;5.73;5.10;;;20.10;80.30;;;19.94;66.10;98156.31;4933451;29;20461;-69
2023/08/12 05:37:27;;;;;;;4.67;4.27;;;20.10;81.00;;;19.89;65.59;98161.75;4933594;29;20538;-69
2023/08/12 05:39:56;;;;;;;4.50;4.20;;;20.10;80.60;;;20.00;65.57;98149.75;4944057;28;20460;-70
2023/08/12 05:42:23;;;;;;;5.00;4.50;;;20.20;80.70;;;20.20;64.56;98148.09;4947678;28;20473;-69
2023/08/12 05:44:50;;;;;;;4.90;3.93;;;20.50;80.50;;;20.83;62.74;98146.88;4951126;28;20862;-70
2023/08/12 05:47:19;;;;;;;5.93;3.80;;;21.10;80.10;;;21.70;60.64;98144.00;4936962;29;20459;-70
2023/08/12 05:49:46;;;;;;;4.27;3.87;;;22.10;78.80;;;22.38;58.51;98136.03;4943764;29;20520;-69
2023/08/12 05:52:13;;;;;;;4.83;3.77;;;23.00;77.10;;;23.41;54.80;98143.09;4936137;29;20457;-69
2023/08/12 05:54:41;;;;;;;4.13;3.83;;;24.10;75.00;;;23.45;54.39;98144.16;4937059;29;20480;-70
2023/08/12 05:57:09;;;;;;;4.10;3.80;;;24.10;73.60;;;23.93;52.72;98136.81;4935285;29;20471;-68
2023/08/12 05:59:37;;;;;;;3.97;3.57;;;24.30;72.60;;;23.70;52.52;98136.59;4936613;29;20518;-69
2023/08/12 06:02:04;;;;;;;6.53;4.10;;;24.50;71.20;;;23.63;53.64;98141.69;4935952;29;20462;-72
2023/08/12 06:04:31;;;;;;;4.60;4.20;;;24.10;72.10;;;23.15;55.47;98134.34;4937452;29;20478;-72
2023/08/12 06:06:59;;;;;;;3.27;3.07;;;23.80;72.70;;;22.57;56.05;98139.69;4945020;28;20484;-72
2023/08/12 06:09:26;;;;;;;3.80;3.50;;;23.20;72.70;;;21.56;58.58;98132.78;4939447;29;20455;-72
2023/08/12 06:11:54;;;;;;;9.43;4.37;;;22.30;73.60;;;21.63;59.04;98136.06;4951404;28;20459;-72
2023/08/12 06:14:22;;;;;;;3.67;3.37;;;22.00;74.80;;;21.25;60.69;98141.22;4948076;29;20541;-71
2023/08/12 06:16:48;;;;;;;4.90;3.77;;;21.50;75.70;;;21.24;60.82;98134.91;4943164;29;20482;-71
2023/08/12 06:19:16;;;;;;;5.77;3.93;;;21.50;76.30;;;21.50;60.78;98137.50;4944813;29;20552;-71
2023/08/12 06:21:43;;;;;;;3.80;3.40;;;21.60;77.00;;;21.33;60.76;98129.66;4947398;29;20458;-72
2023/08/12 06:24:10;;;;;;;4.70;4.03;;;21.60;76.70;;;21.29;61.52;98139.53;4936841;29;20459;-71
2023/08/12 06:26:38;;;;;;;5.03;3.97;;;21.50;77.10;;;21.20;61.36;98131.91;4952503;29;20475;-72
2023/08/12 06:29:05;;;;;;;4.00;3.70;;;21.40;77.20;;;21.56;61.13;98128.13;4942450;29;20463;-72
2023/08/12 06:31:34;;;;;;;4.27;3.87;;;21.50;77.80;;;21.71;60.88;98123.66;4935684;29;20514;-71
2023/08/12 06:34:02;;;;;;;4.00;3.60;;;21.60;77.70;;;21.54;61.18;98130.34;4948179;29;20521;-71
2023/08/12 06:36:29;;;;;;;5.20;4.57;;;21.60;77.80;;;21.92;60.49;98130.63;4939854;29;20459;-73
2023/08/12 06:38:56;;;;;;;4.57;4.17;;;21.80;77.90;;;22.07;59.73;98124.19;4941401;29;20459;-72
2023/08/12 06:41:24;;;;;;;4.70;3.83;;;22.00;77.60;;;22.33;58.91;98123.94;4935519;28;20957;-72
2023/08/12 06:43:51;;;;;;;4.00;3.70;;;22.20;77.40;;;22.43;59.05;98122.19;4961010;28;20466;-72
2023/08/12 06:46:18;;;;;;;4.73;4.37;;;22.20;77.20;;;22.38;58.80;98119.50;4954252;29;20979;-72
2023/08/12 06:48:47;;;;;;;4.20;3.33;;;22.30;77.00;;;22.92;57.21;98132.13;4950657;28;20467;-72
2023/08/12 06:51:14;;;;;;;4.10;3.70;;;22.70;76.60;;;22.94;57.01;98126.34;4942484;28;20471;-72
2023/08/12 06:53:41;;;;;;;3.63;3.33;;;22.80;76.20;;;23.12;56.58;98130.22;4950426;29;20469;-71
2023/08/12 06:56:09;;;;;;;4.10;3.70;;;23.00;76.00;;;23.10;56.46;98124.19;4948876;28;20830;-72
2023/08/12 06:58:36;;;;;;;8.60;4.20;;;23.00;75.60;;;23.57;55.33;98126.31;4950846;29;20462;-72
2023/08/12 07:01:03;;;;;;;4.23;3.83;;;23.30;75.60;;;23.68;54.89;98136.09;4935133;29;20456;-72
2023/08/12 07:03:30;;;;;;;3.70;3.40;;;23.50;75.20;;;23.85;54.48;98131.97;4950149;29;20458;-72
2023/08/12 07:05:59;;;;;;;4.07;3.40;;;23.70;74.70;;;23.77;54.66;98131.56;4939962;29;20482;-72
2023/08/12 07:08:27;;;;;;;3.83;3.53;;;23.70;74.70;;;23.82;54.37;98132.56;4949636;28;20471;-71
2023/08/12 07:10:54;;;;;;;3.80;3.50;;;23.70;74.50;;;23.90;54.13;98131.91;4948713;28;20461;-72
2023/08/12 07:13:21;;;;;;;3.80;3.17;;;23.80;74.30;;;23.42;55.04;98114.41;4943797;29;20466;-72
2023/08/12 07:15:49;;;;;;;3.47;3.23;;;23.70;74.20;;;23.87;54.23;98132.47;4954073;28;20460;-72
2023/08/12 07:18:16;;;;;;;3.60;3.30;;;23.90;74.20;;;24.24;53.60;98128.03;4954130;28;20455;-73
2023/08/12 07:20:44;;;;;;;3.40;3.20;;;24.00;73.90;;;24.07;53.77;98130.56;4935442;29;20463;-72
2023/08/12 07:23:12;;;;;;;3.73;3.43;;;24.00;73.60;;;24.04;53.76;98123.69;4936400;29;20459;-73
2023/08/12 07:25:39;;;;;;;4.03;3.67;;;24.10;73.40;;;24.13;53.77;98132.94;4933891;29;20958;-73
2023/08/12 07:28:07;;;;;;;3.50;3.20;;;24.10;73.30;;;24.61;52.82;98134.53;4940494;29;20443;-73
2023/08/12 07:30:36;;;;;;;4.87;4.40;;;24.50;73.40;;;24.85;52.20;98129.97;4946974;29;20461;-72
2023/08/12 07:33:04;;;;;;;3.50;3.30;;;24.70;73.20;;;24.93;51.85;98139.47;4945750;28;20463;-72
2023/08/12 07:35:31;;;;;;;3.73;3.30;;;24.80;72.70;;;24.67;52.41;98093.84;4953100;29;20452;-73
2023/08/12 07:37:58;;;;;;;3.40;3.20;;;24.90;72.80;;;24.85;52.14;98125.28;4949960;28;20606;-72
2023/08/12 07:40:27;;;;;;;3.97;3.67;;;24.90;72.40;;;24.85;51.79;98078.31;4938614;29;20468;-71
2023/08/12 07:42:54;;;;;;;3.57;3.23;;;25.10;72.30;;;25.18;51.75;98144.47;4951306;28;20456;-72
2023/08/12 07:45:23;;;;;;;3.73;3.43;;;25.20;72.00;;;25.41;51.34;98129.91;4946782;28;20456;-72
2023/08/12 07:47:51;;;;;;;3.37;3.10;;;25.30;71.90;;;25.29;51.39;98133.22;4944033;29;20453;-72
2023/08/12 07:50:18;;;;;;;3.17;2.97;;;25.30;71.70;;;25.34;52.24;98129.53;4934227;29;20472;-73
2023/08/12 07:52:45;;;;;;;3.27;3.07;;;25.40;72.10;;;25.48;50.64;98135.00;4932754;29;20480;-72
2023/08/12 07:55:13;;;;;;;4.37;3.97;;;25.60;71.00;;;25.46;51.74;98127.84;4933555;29;20529;-72
2023/08/12 07:57:42;;;;;;;5.37;3.10;;;25.40;71.50;;;26.10;49.85;98128.03;4934413;29;20480;-73
2023/08/12 08:00:11;;;;;;;3.47;3.17;;;25.90;71.20;;;25.99;50.08;98125.50;4948448;28;20834;-73
2023/08/12 08:02:39;;;;;;;3.60;3.00;;;26.00;70.70;;;25.63;50.27;98123.63;4932997;29;20469;-73
2023/08/12 08:05:08;;;;;;;4.40;3.03;;;25.80;70.40;;;25.87;50.72;98128.03;4947277;28;20462;-72
2023/08/12 08:07:35;;;;;;;3.20;3.00;;;25.90;70.50;;;26.39;49.11;98124.81;4936343;28;20485;-72
2023/08/12 08:10:02;;;;;;;3.87;3.57;;;26.10;70.30;;;26.58;48.50;98132.06;4941725;29;20486;-72
2023/08/12 08:12:29;;;;;;;4.33;3.93;;;26.40;69.60;;;26.83;47.97;98138.84;4947482;29;20469;-72
2023/08/12 08:14:58;;;;;;;3.50;3.30;;;26.80;68.90;;;27.05;47.34;98139.91;4953953;28;20457;-74
2023/08/12 08:17:25;;;;;;;3.27;3.07;;;26.90;68.60;;;26.49;48.18;98139.50;4936259;29;20466;-72
2023/08/12 08:19:53;;;;;;;3.07;2.87;;;26.60;68.20;;;26.98;47.79;98134.03;4963020;28;20461;-72
2023/08/12 08:22:20;;;;;;;4.97;3.30;;;26.70;68.70;;;27.19;47.20;98133.44;4951125;29;20460;-72
2023/08/12 08:24:47;;;;;;;3.40;3.20;;;26.90;68.40;;;27.01;47.45;98127.84;4934869;29;20463;-71
2023/08/12 08:27:14;;;;;;;4.73;2.80;;;26.80;68.20;;;27.44;46.91;98129.88;4934050;29;21016;-71
2023/08/12 08:29:41;;;;;;;3.50;3.20;;;27.00;68.20;;;27.65;46.04;98125.69;4950150;29;20943;-71
2023/08/12 08:32:10;;;;;;;5.63;3.17;;;27.40;67.40;;;27.97;45.90;98127.13;4953557;28;20451;-73
2023/08/12 08:34:37;;;;;;;4.37;3.90;;;27.70;67.30;;;27.69;46.41;98119.16;4934232;29;20455;-73
2023/08/12 08:37:04;;;;;;;3.67;3.37;;;27.80;67.20;;;27.82;46.42;98116.53;4934068;29;20458;-72
2023/08/12 08:39:32;;;;;;;4.87;3.43;;;27.70;67.10;;;27.70;46.36;98109.69;4942976;29;20455;-72
2023/08/12 08:42:00;;;;;;;3.90;3.60;;;27.60;67.00;;;27.44;46.50;98118.78;4933829;29;20507;-73
2023/08/12 08:44:31;;;;;;;5.00;3.40;;;27.30;66.70;;;27.49;46.27;98108.66;4934591;29;20487;-73
2023/08/12 08:47:00;;;;;;;3.97;3.67;;;27.40;66.50;;;27.29;46.67;98116.50;4934864;29;20486;-72
2023/08/12 08:49:30;;;;;;;3.00;2.80;;;27.30;66.20;;;27.20;46.76;98129.50;4933575;29;20467;-71
2023/08/12 08:51:59;;;;;;;3.20;3.00;;;27.30;66.20;;;27.90;45.55;98129.59;4941594;29;20557;-72
2023/08/12 08:54:28;;;;;;;3.70;3.40;;;27.50;66.10;;;28.01;45.60;98143.94;4939179;29;20459;-72
2023/08/12 08:56:55;;;;;;;3.50;3.20;;;27.80;66.10;;;28.04;45.55;98142.47;4944634;28;20465;-72
2023/08/12 08:59:22;;;;;;;3.47;3.17;;;28.00;66.00;;;28.32;44.81;98136.56;4950001;29;20458;-72
2023/08/12 09:01:52;;;;;;;3.97;3.20;;;28.00;65.40;;;28.03;44.93;98135.28;4940585;29;20511;-71
2023/08/12 09:04:22;;;;;;;3.53;3.27;;;27.90;65.10;;;28.15;44.93;98138.22;4955667;28;20802;-72
2023/08/12 09:06:53;;;;;;;4.13;3.73;;;28.00;65.00;;;28.30;44.02;98138.88;4943545;28;20482;-71
2023/08/12 09:09:23;;;;;;;3.90;3.57;;;28.00;64.70;;;28.66;43.86;98134.81;4944203;29;20510;-73
2023/08/12 09:11:52;;;;;;;3.30;3.10;;;28.30;64.60;;;28.67;43.28;98133.69;4963141;28;20794;-73
2023/08/12 09:14:20;;;;;;;3.67;3.40;;;28.50;64.00;;;28.65;43.66;98127.63;4959489;28;20462;-72
2023/08/12 09:16:47;;;;;;;3.47;3.20;;;28.50;64.10;;;28.48;44.26;98131.28;4949980;28;21107;-72
2023/08/12 09:19:15;;;;;;;2.50;2.30;;;28.50;63.70;;;28.56;43.84;98125.69;4940144;29;20461;-71
2023/08/12 09:21:43;;;;;;;3.30;3.07;;;28.40;63.40;;;28.26;43.83;98125.63;4947563;28;21104;-72
2023/08/12 09:24:14;;;;;;;3.57;3.37;;;28.30;63.30;;;28.31;44.23;98121.88;4955947;28;20459;-72
2023/08/12 09:26:43;;;;;;;4.47;3.60;;;28.30;63.60;;;28.43;43.74;98115.59;4947795;28;20479;-72
2023/08/12 09:29:11;;;;;;;3.20;3.00;;;28.30;63.50;;;27.95;44.56;98123.84;4955869;28;20459;-72
2023/08/12 09:31:38;;;;;;;3.40;3.20;;;28.00;63.50;;;27.65;44.82;98115.38;4946926;29;20520;-72
2023/08/12 09:34:07;;;;;;;3.50;3.30;;;27.70;63.40;;;27.64;45.13;98115.72;4933573;29;20462;-71
2023/08/12 09:36:35;;;;;;;3.70;3.40;;;27.40;63.90;;;27.77;45.19;98123.06;4959816;28;20450;-72
2023/08/12 09:39:08;;;;;;;3.67;3.37;;;27.50;64.00;;;27.26;46.09;98117.94;4933307;29;20473;-71
2023/08/12 09:41:38;;;;;;;3.50;3.30;;;27.30;64.00;;;27.06;46.99;98121.34;4931865;29;20490;-74
2023/08/12 09:44:06;;;;;;;3.90;3.60;;;27.00;64.60;;;26.50;48.12;98127.28;4945825;29;20470;-73
2023/08/12 09:46:34;;;;;;;3.73;3.43;;;26.60;64.90;;;26.63;48.24;98101.44;4942062;29;20482;-72
2023/08/12 09:49:01;;;;;;;3.80;3.50;;;26.50;65.60;;;26.55;48.66;98122.44;4954656;28;20600;-72
2023/08/12 09:51:36;;;;;;;3.93;3.57;;;26.40;66.10;;;26.98;47.46;98120.97;4947801;29;20988;-72
2023/08/12 09:54:04;;;;;;;3.50;3.30;;;26.70;65.50;;;26.76;47.92;98132.13;4948039;28;21102;-72
2023/08/12 09:56:38;;;;;;;3.13;2.93;;;26.70;65.20;;;27.12;47.75;98133.91;4933280;29;21008;-72
2023/08/12 09:59:08;;;;;;;3.37;3.07;;;26.80;65.80;;;27.06;47.72;98130.47;4933440;29;20451;-72
2023/08/12 10:01:35;;;;;;;4.10;3.80;;;27.00;65.60;;;27.32;46.45;98138.03;4932552;29;20683;-73
2023/08/12 10:04:07;;;;;;;4.50;4.10;;;27.10;64.80;;;28.19;45.00;98142.00;4934056;29;20470;-72
2023/08/12 10:06:34;;;;;;;3.20;3.00;;;27.50;64.70;;;28.41;44.93;98131.78;4941353;28;20471;-72
2023/08/12 10:09:03;;;;;;;3.77;3.47;;;28.10;64.50;;;28.76;44.02;98131.69;4963895;28;20843;-73
2023/08/12 10:11:30;;;;;;;3.50;3.20;;;28.40;63.80;;;29.01;43.80;98123.56;4933956;29;20575;-73
2023/08/12 10:13:59;;;;;;;3.73;3.43;;;28.70;63.50;;;28.63;44.18;98121.59;4938212;29;20517;-73
2023/08/12 10:16:27;;;;;;;5.00;3.57;;;28.60;63.40;;;28.58;44.11;98121.75;4944062;29;20462;-73
2023/08/12 10:18:56;;;;;;;4.10;3.80;;;28.40;63.60;;;27.70;46.11;98119.97;4952825;28;20465;-73
2023/08/12 10:21:24;;;;;;;4.10;3.67;;;27.70;63.90;;;27.68;46.01;98109.22;4934352;29;20455;-73
2023/08/12 10:23:52;;;;;;;4.23;3.77;;;27.60;64.30;;;27.88;46.46;98112.44;4938010;29;20482;-74